createdAt,value
2022-10-23T00:02:20.724Z,87.47
2022-10-23T00:04:54.082Z,87.36
2022-10-23T00:07:24.748Z,87.11
2022-10-23T00:09:56.190Z,86.92
2022-10-23T00:12:28.122Z,86.98
2022-10-23T00:14:58.439Z,87.12
2022-10-23T00:17:32.665Z,87.07
2022-10-23T00:20:02.999Z,87.37
2022-10-23T00:22:33.756Z,87.62
2022-10-23T00:25:04.294Z,87.97
2022-10-23T00:27:35.317Z,88.14
2022-10-23T00:30:07.318Z,88.32
2022-10-23T00:32:37.781Z,88.33
2022-10-23T00:35:09.375Z,88.26
2022-10-23T00:37:40.248Z,88.26
2022-10-23T00:40:13.174Z,88.56
2022-10-23T00:42:43.832Z,88.49
2022-10-23T00:45:24.230Z,88.55
2022-10-23T00:47:55.513Z,88.52
2022-10-23T00:50:27.333Z,88.36
2022-10-23T00:53:00.446Z,88.10
2022-10-23T00:55:32.039Z,87.94
2022-10-23T00:58:02.436Z,87.79
2022-10-23T01:00:42.898Z,87.76
2022-10-23T01:03:13.781Z,87.52
2022-10-23T01:05:50.426Z,87.52
2022-10-23T01:08:29.442Z,87.50
2022-10-23T01:11:07.144Z,87.44
2022-10-23T01:13:44.900Z,87.56
2022-10-23T01:16:23.149Z,87.79
2022-10-23T01:19:00.110Z,87.79
2022-10-23T01:21:41.451Z,87.74
2022-10-23T01:24:22.661Z,87.78
2022-10-23T01:27:03.747Z,88.03
2022-10-23T01:29:41.122Z,88.03
2022-10-23T01:32:16.907Z,87.97
2022-10-23T01:34:52.964Z,88.28
2022-10-23T01:37:30.384Z,88.46
2022-10-23T01:40:06.818Z,88.65
2022-10-23T01:42:44.652Z,88.63
2022-10-23T01:45:20.211Z,88.49
2022-10-23T01:47:51.844Z,88.36
2022-10-23T01:50:25.837Z,88.34
2022-10-23T01:52:56.796Z,88.36
2022-10-23T01:55:27.818Z,88.40
2022-10-23T01:58:00.626Z,88.47
2022-10-23T02:00:31.717Z,88.50
2022-10-23T02:03:04.570Z,88.46
2022-10-23T02:05:35.268Z,88.49
2022-10-23T02:08:07.028Z,88.49
2022-10-23T02:10:49.932Z,88.54
2022-10-23T02:13:26.662Z,88.46
2022-10-23T02:16:06.967Z,88.40
2022-10-23T02:18:47.112Z,88.36
2022-10-23T02:21:27.702Z,88.36
2022-10-23T02:24:03.656Z,88.20
2022-10-23T02:26:39.287Z,88.09
2022-10-23T02:29:14.350Z,88.03
2022-10-23T02:31:44.975Z,87.97
2022-10-23T02:34:15.585Z,87.81
2022-10-23T02:36:46.068Z,87.70
2022-10-23T02:39:16.412Z,87.58
2022-10-23T02:41:52.296Z,87.50
2022-10-23T02:44:33.385Z,87.62
2022-10-23T02:47:26.749Z,87.76
2022-10-23T02:50:05.014Z,87.74
2022-10-23T02:52:42.780Z,87.89
2022-10-23T02:55:29.338Z,88.02
2022-10-23T02:58:08.185Z,88.02
2022-10-23T03:00:43.746Z,88.18
2022-10-23T03:03:18.649Z,88.34
2022-10-23T03:05:49.119Z,88.33
2022-10-23T03:08:19.595Z,88.40
2022-10-23T03:10:51.365Z,88.42
2022-10-23T03:13:21.889Z,88.37
2022-10-23T03:15:53.160Z,87.92
2022-10-23T03:18:23.856Z,87.79
2022-10-23T03:20:54.538Z,87.88
2022-10-23T03:23:25.228Z,88.02
2022-10-23T03:25:56.485Z,87.94
2022-10-23T03:28:27.105Z,87.99
2022-10-23T03:30:57.497Z,88.31
2022-10-23T03:33:27.815Z,88.47
2022-10-23T03:35:58.202Z,88.60
2022-10-23T03:38:28.640Z,88.57
2022-10-23T03:40:58.978Z,88.54
2022-10-23T03:43:29.314Z,88.42
2022-10-23T03:46:01.158Z,88.20
2022-10-23T03:48:32.669Z,88.15
2022-10-23T03:51:03.007Z,88.10
2022-10-23T03:53:33.537Z,88.09
2022-10-23T03:56:04.138Z,88.10
2022-10-23T03:58:34.802Z,88.28
2022-10-23T04:01:05.682Z,88.16
2022-10-23T04:03:36.589Z,88.04
2022-10-23T04:06:08.236Z,88.32
2022-10-23T04:08:39.093Z,88.41
2022-10-23T04:11:10.084Z,88.40
2022-10-23T04:13:41.146Z,88.48
2022-10-23T04:16:11.639Z,88.36
2022-10-23T04:18:44.017Z,88.55
2022-10-23T04:21:14.696Z,88.53
2022-10-23T04:23:45.103Z,88.57
2022-10-23T04:26:15.473Z,88.68
2022-10-23T04:28:45.872Z,88.58
2022-10-23T04:31:16.292Z,88.54
2022-10-23T04:33:47.013Z,88.66
2022-10-23T04:36:17.818Z,88.72
2022-10-23T04:38:48.747Z,88.74
2022-10-23T04:41:19.664Z,89.31
2022-10-23T04:43:50.104Z,89.13
2022-10-23T04:46:20.639Z,88.98
2022-10-23T04:48:51.072Z,89.08
2022-10-23T04:51:21.549Z,89.12
2022-10-23T04:53:51.959Z,89.11
2022-10-23T04:56:22.780Z,88.99
2022-10-23T04:58:54.841Z,88.99
2022-10-23T05:01:25.711Z,89.02
2022-10-23T05:03:57.049Z,89.05
2022-10-23T05:06:28.286Z,89.11
2022-10-23T05:08:58.706Z,88.93
2022-10-23T05:11:29.518Z,88.89
2022-10-23T05:13:59.985Z,88.82
2022-10-23T05:16:38.696Z,88.74
2022-10-23T05:19:12.386Z,88.58
2022-10-23T05:21:44.076Z,88.69
2022-10-23T05:24:14.542Z,88.78
2022-10-23T05:26:45.283Z,88.89
2022-10-23T05:29:16.109Z,88.99
2022-10-23T05:31:47.862Z,89.05
2022-10-23T05:34:21.841Z,89.14
2022-10-23T05:36:53.312Z,89.31
2022-10-23T05:39:24.351Z,89.31
2022-10-23T05:41:56.203Z,89.48
2022-10-23T05:44:27.461Z,89.49
2022-10-23T05:46:58.287Z,89.52
2022-10-23T05:49:28.774Z,89.54
2022-10-23T05:51:59.557Z,89.80
2022-10-23T05:54:30.880Z,90.22
2022-10-23T05:57:01.650Z,90.65
2022-10-23T05:59:32.349Z,91.11
2022-10-23T06:02:02.767Z,91.28
2022-10-23T06:04:34.742Z,91.48
2022-10-23T06:07:05.357Z,91.56
2022-10-23T06:09:36.124Z,91.67
2022-10-23T06:12:07.506Z,91.93
2022-10-23T06:14:38.273Z,91.99
2022-10-23T06:17:09.112Z,91.95
2022-10-23T06:19:39.605Z,91.92
2022-10-23T06:22:10.156Z,91.94
2022-10-23T06:24:42.147Z,91.75
2022-10-23T06:27:12.557Z,91.70
2022-10-23T06:29:43.308Z,91.68
2022-10-23T06:32:13.721Z,91.63
2022-10-23T06:34:44.421Z,91.59
2022-10-23T06:37:15.341Z,91.46
2022-10-23T06:39:46.549Z,91.37
2022-10-23T06:42:17.897Z,91.33
2022-10-23T06:44:48.422Z,91.11
2022-10-23T06:47:19.087Z,91.08
2022-10-23T06:49:50.355Z,90.98
2022-10-23T06:52:42.041Z,91.06
2022-10-23T06:55:12.838Z,91.35
2022-10-23T06:57:44.217Z,91.43
2022-10-23T07:00:16.188Z,91.20
2022-10-23T07:02:47.473Z,91.05
2022-10-23T07:05:18.140Z,91.18
2022-10-23T07:07:48.957Z,91.06
2022-10-23T07:10:19.667Z,91.18
2022-10-23T07:12:50.113Z,91.24
2022-10-23T07:15:20.669Z,91.27
2022-10-23T07:17:51.417Z,91.35
2022-10-23T07:20:22.320Z,91.48
2022-10-23T07:22:55.401Z,91.78
2022-10-23T07:25:27.508Z,91.93
2022-10-23T07:27:57.997Z,92.11
2022-10-23T07:30:28.490Z,92.14
2022-10-23T07:32:59.257Z,92.23
2022-10-23T07:35:32.990Z,92.24
2022-10-23T07:38:06.095Z,92.38
2022-10-23T07:40:37.347Z,92.49
2022-10-23T07:43:08.051Z,92.47
2022-10-23T07:45:38.820Z,92.56
2022-10-23T07:48:09.346Z,92.63
2022-10-23T07:50:41.408Z,92.65
2022-10-23T07:53:17.864Z,92.81
2022-10-23T07:55:55.004Z,92.81
2022-10-23T07:58:26.569Z,92.92
2022-10-23T08:01:00.555Z,92.97
2022-10-23T08:03:32.721Z,92.99
2022-10-23T08:06:03.195Z,93.03
2022-10-23T08:08:33.661Z,93.09
2022-10-23T08:11:04.209Z,93.16
2022-10-23T08:13:35.007Z,93.26
2022-10-23T08:16:05.769Z,93.36
2022-10-23T08:18:36.872Z,93.49
2022-10-23T08:21:07.621Z,93.42
2022-10-23T08:23:38.103Z,93.44
2022-10-23T08:26:09.619Z,93.45
2022-10-23T08:28:40.386Z,93.45
2022-10-23T08:31:13.018Z,93.37
2022-10-23T08:33:44.049Z,93.40
2022-10-23T08:36:21.275Z,93.40
2022-10-23T08:38:53.627Z,93.40
2022-10-23T08:41:29.707Z,93.34
2022-10-23T08:44:09.442Z,93.33
2022-10-23T08:46:43.681Z,93.33
2022-10-23T08:49:31.879Z,93.32
2022-10-23T08:52:11.719Z,93.20
2022-10-23T08:54:53.289Z,93.16
2022-10-23T08:57:33.338Z,93.14
2022-10-23T09:00:09.130Z,93.04
2022-10-23T09:02:44.919Z,92.84
2022-10-23T09:05:19.124Z,93.00
2022-10-23T09:08:08.576Z,92.98
2022-10-23T09:10:54.792Z,93.06
2022-10-23T09:13:47.439Z,92.89
2022-10-23T09:16:30.691Z,92.77
2022-10-23T09:19:01.642Z,92.69
2022-10-23T09:21:33.715Z,92.60
2022-10-23T09:24:04.175Z,92.49
2022-10-23T09:26:34.852Z,92.47
2022-10-23T09:29:21.936Z,92.41
2022-10-23T09:31:54.666Z,92.40
2022-10-23T09:34:27.354Z,92.35
2022-10-23T09:37:00.814Z,92.38
2022-10-23T09:39:33.515Z,92.15
2022-10-23T09:42:15.684Z,91.97
2022-10-23T09:44:53.050Z,91.69
2022-10-23T09:47:25.638Z,91.66
2022-10-23T09:49:57.490Z,91.52
2022-10-23T09:52:34.223Z,91.34
2022-10-23T09:55:20.313Z,91.25
2022-10-23T09:57:51.204Z,91.25
2022-10-23T10:00:24.831Z,91.03
2022-10-23T10:03:01.566Z,91.01
2022-10-23T10:05:34.195Z,90.88
2022-10-23T10:08:16.511Z,90.85
2022-10-23T10:10:51.181Z,91.00
2022-10-23T10:13:56.860Z,90.86
2022-10-23T10:16:34.617Z,90.91
2022-10-23T10:19:13.579Z,90.86
2022-10-23T10:21:50.799Z,91.00
2022-10-23T10:24:27.099Z,90.93
2022-10-23T10:27:04.178Z,91.02
2022-10-23T10:29:46.887Z,90.86
2022-10-23T10:32:32.314Z,90.77
2022-10-23T10:35:14.759Z,90.60
2022-10-23T10:38:02.868Z,90.63
2022-10-23T10:40:36.853Z,90.34
2022-10-23T10:43:31.938Z,90.28
2022-10-23T10:46:12.746Z,90.17
2022-10-23T10:48:57.912Z,90.01
2022-10-23T10:51:37.959Z,89.90
2022-10-23T10:54:26.247Z,89.75
2022-10-23T10:56:59.816Z,89.70
2022-10-23T10:59:32.069Z,89.53
2022-10-23T11:02:14.868Z,89.43
2022-10-23T11:04:52.825Z,89.38
2022-10-23T11:07:27.871Z,89.15
2022-10-23T11:09:59.982Z,88.99
2022-10-23T11:12:31.016Z,88.86
2022-10-23T11:15:02.496Z,88.78
2022-10-23T11:17:40.124Z,88.72
2022-10-23T11:20:28.269Z,88.80
2022-10-23T11:23:08.458Z,88.78
2022-10-23T11:25:59.203Z,88.64
2022-10-23T11:28:46.538Z,88.31
2022-10-23T11:31:26.109Z,88.07
2022-10-23T11:34:20.549Z,87.68
2022-10-23T11:36:54.173Z,87.52
2022-10-23T11:39:29.403Z,87.23
2022-10-23T11:42:01.775Z,87.17
2022-10-23T11:44:44.524Z,87.19
2022-10-23T11:47:38.949Z,87.16
2022-10-23T11:50:28.805Z,87.22
2022-10-23T11:53:19.932Z,87.11
2022-10-23T11:56:06.668Z,86.73
2022-10-23T11:58:49.978Z,86.67
2022-10-23T12:01:35.111Z,86.66
2022-10-23T12:04:19.651Z,86.78
2022-10-23T12:06:52.262Z,86.35
2022-10-23T12:09:29.676Z,85.84
2022-10-23T12:12:17.862Z,85.69
2022-10-23T12:14:49.855Z,85.37
2022-10-23T12:17:37.795Z,84.97
2022-10-23T12:20:24.182Z,84.85
2022-10-23T12:23:17.017Z,84.74
2022-10-23T12:26:03.918Z,84.87
2022-10-23T12:28:41.910Z,84.84
2022-10-23T12:31:29.968Z,84.53
2022-10-23T12:34:10.088Z,84.20
2022-10-23T12:37:09.911Z,84.04
2022-10-23T12:39:40.836Z,84.25
2022-10-23T12:42:17.044Z,84.18
2022-10-23T12:44:47.860Z,84.31
2022-10-23T12:47:20.413Z,84.40
2022-10-23T12:49:52.957Z,84.53
2022-10-23T12:52:25.290Z,84.49
2022-10-23T12:54:55.879Z,84.47
2022-10-23T12:57:28.289Z,84.29
2022-10-23T13:00:04.634Z,84.24
2022-10-23T13:02:35.226Z,84.13
2022-10-23T13:05:09.093Z,84.25
2022-10-23T13:07:44.262Z,84.51
2022-10-23T13:10:17.416Z,84.60
2022-10-23T13:12:55.943Z,84.48
2022-10-23T13:15:27.072Z,84.34
2022-10-23T13:18:07.007Z,84.17
2022-10-23T13:20:38.966Z,83.99
2022-10-23T13:23:19.416Z,83.99
2022-10-23T13:25:58.102Z,84.16
2022-10-23T13:28:30.293Z,83.65
2022-10-23T13:31:07.542Z,83.46
2022-10-23T13:33:40.800Z,83.47
2022-10-23T13:36:27.353Z,83.40
2022-10-23T13:39:13.442Z,83.10
2022-10-23T13:41:45.601Z,82.94
2022-10-23T13:44:17.614Z,83.05
2022-10-23T13:46:49.130Z,83.01
2022-10-23T13:49:19.864Z,83.07
2022-10-23T13:51:52.346Z,83.17
2022-10-23T13:54:25.614Z,83.20
2022-10-23T13:56:57.181Z,83.10
2022-10-23T13:59:27.633Z,83.27
2022-10-23T14:01:58.422Z,83.12
2022-10-23T14:04:29.179Z,82.94
2022-10-23T14:06:59.550Z,83.06
2022-10-23T14:09:30.096Z,82.93
2022-10-23T14:12:00.849Z,82.97
2022-10-23T14:14:31.315Z,82.92
2022-10-23T14:17:02.068Z,82.82
2022-10-23T14:19:33.798Z,82.66
2022-10-23T14:22:04.681Z,82.69
2022-10-23T14:24:35.070Z,82.79
2022-10-23T14:27:05.577Z,82.90
2022-10-23T14:29:36.322Z,82.90
2022-10-23T14:32:07.480Z,83.10
2022-10-23T14:34:39.458Z,83.18
2022-10-23T14:37:10.587Z,83.11
2022-10-23T14:39:41.425Z,83.13
2022-10-23T14:42:13.771Z,83.29
2022-10-23T14:44:44.958Z,83.37
2022-10-23T14:47:15.965Z,83.41
2022-10-23T14:49:49.344Z,83.44
2022-10-23T14:52:20.286Z,83.40
2022-10-23T14:54:51.385Z,83.34
2022-10-23T14:57:22.454Z,83.30
2022-10-23T14:59:53.040Z,83.31
2022-10-23T15:02:23.450Z,83.19
2022-10-23T15:04:53.872Z,83.36
2022-10-23T15:07:24.332Z,83.27
2022-10-23T15:09:55.460Z,83.18
2022-10-23T15:12:26.105Z,83.24
2022-10-23T15:14:56.868Z,83.34
2022-10-23T15:17:27.719Z,83.25
2022-10-23T15:19:58.066Z,83.35
2022-10-23T15:22:28.580Z,83.34
2022-10-23T15:24:58.961Z,83.54
2022-10-23T15:27:29.531Z,83.33
2022-10-23T15:30:00.007Z,83.34
2022-10-23T15:32:30.685Z,83.23
2022-10-23T15:35:01.074Z,83.16
2022-10-23T15:37:31.870Z,82.94
2022-10-23T15:40:03.042Z,82.61
2022-10-23T15:42:33.776Z,82.38
2022-10-23T15:45:04.344Z,82.11
2022-10-23T15:47:34.773Z,82.05
2022-10-23T15:50:05.775Z,81.93
2022-10-23T15:52:36.825Z,81.90
2022-10-23T15:55:11.523Z,81.55
2022-10-23T15:57:42.352Z,81.41
2022-10-23T16:00:19.585Z,81.05
2022-10-23T16:02:50.879Z,80.75
2022-10-23T16:05:21.804Z,80.38
2022-10-23T16:07:52.393Z,80.07
2022-10-23T16:10:23.479Z,79.94
2022-10-23T16:12:55.015Z,79.60
2022-10-23T16:15:25.646Z,79.50
2022-10-23T16:17:56.120Z,79.52
2022-10-23T16:20:27.268Z,79.59
2022-10-23T16:22:57.990Z,79.42
2022-10-23T16:25:28.740Z,79.26
2022-10-23T16:28:00.676Z,79.26
2022-10-23T16:30:31.769Z,79.27
2022-10-23T16:33:02.231Z,79.21
2022-10-23T16:35:32.853Z,79.32
2022-10-23T16:38:03.289Z,79.24
2022-10-23T16:40:33.776Z,79.15
2022-10-23T16:43:04.461Z,79.01
2022-10-23T16:45:37.074Z,78.76
2022-10-23T16:48:08.948Z,78.76
2022-10-23T16:50:41.811Z,78.80
2022-10-23T16:53:12.346Z,78.83
2022-10-23T16:55:43.913Z,78.92
2022-10-23T16:58:14.726Z,79.03
2022-10-23T17:00:45.542Z,79.02
2022-10-23T17:03:16.582Z,79.30
2022-10-23T17:05:47.242Z,79.36
2022-10-23T17:08:17.754Z,79.44
2022-10-23T17:10:48.472Z,79.65
2022-10-23T17:13:19.217Z,79.83
2022-10-23T17:15:49.911Z,80.06
2022-10-23T17:18:20.300Z,80.37
2022-10-23T17:20:59.689Z,80.63
2022-10-23T17:23:31.053Z,80.85
2022-10-23T17:26:01.824Z,81.03
2022-10-23T17:28:34.105Z,81.22
2022-10-23T17:31:04.992Z,81.31
2022-10-23T17:33:35.783Z,81.49
2022-10-23T17:36:07.348Z,81.71
2022-10-23T17:38:39.137Z,81.84
2022-10-23T17:41:11.904Z,81.94
2022-10-23T17:43:43.055Z,82.02
2022-10-23T17:46:15.099Z,82.29
2022-10-23T17:48:45.734Z,82.50
2022-10-23T17:51:18.702Z,82.58
2022-10-23T17:53:51.393Z,82.83
2022-10-23T17:56:24.577Z,82.90
2022-10-23T17:58:56.797Z,83.06
2022-10-23T18:01:29.893Z,83.42
2022-10-23T18:04:03.194Z,83.52
2022-10-23T18:06:36.013Z,83.70
2022-10-23T18:09:07.490Z,83.86
2022-10-23T18:11:45.198Z,83.88
2022-10-23T18:14:19.423Z,84.01
2022-10-23T18:16:50.818Z,84.10
2022-10-23T18:19:22.257Z,84.09
2022-10-23T18:21:53.492Z,84.32
2022-10-23T18:24:24.195Z,84.26
2022-10-23T18:26:54.594Z,84.35
2022-10-23T18:29:25.363Z,84.40
2022-10-23T18:31:56.249Z,84.48
2022-10-23T18:34:27.640Z,84.70
2022-10-23T18:36:58.485Z,84.80
2022-10-23T18:39:29.182Z,84.92
2022-10-23T18:42:00.109Z,85.00
2022-10-23T18:44:30.642Z,85.00
2022-10-23T18:47:01.460Z,85.09
2022-10-23T18:49:31.949Z,85.22
2022-10-23T18:52:03.403Z,85.34
2022-10-23T18:54:34.298Z,85.55
2022-10-23T18:57:05.562Z,85.69
2022-10-23T18:59:36.937Z,85.84
2022-10-23T19:02:07.756Z,86.14
2022-10-23T19:04:38.985Z,86.38
2022-10-23T19:07:09.420Z,86.45
2022-10-23T19:09:42.520Z,86.49
2022-10-23T19:14:45.754Z,86.91
2022-10-23T19:17:20.063Z,87.09
2022-10-23T19:19:56.649Z,87.23
2022-10-23T19:22:28.692Z,87.45
2022-10-23T19:25:04.026Z,87.79
2022-10-23T19:27:34.459Z,87.92
2022-10-23T19:30:12.660Z,88.12
2022-10-23T19:32:45.008Z,88.21
2022-10-23T19:35:18.340Z,88.24
2022-10-23T19:37:49.389Z,88.39
2022-10-23T19:40:20.210Z,88.60
2022-10-23T19:42:50.904Z,88.70
2022-10-23T19:45:22.732Z,88.71
2022-10-23T19:47:53.174Z,88.75
2022-10-23T19:50:23.825Z,88.99
2022-10-23T19:52:54.797Z,89.10
2022-10-23T19:55:25.226Z,89.17
2022-10-23T19:57:56.069Z,89.24
2022-10-23T20:00:28.145Z,89.34
2022-10-23T20:02:58.548Z,89.47
2022-10-23T20:05:29.160Z,89.54
2022-10-23T20:08:00.158Z,89.57
2022-10-23T20:10:30.989Z,89.66
2022-10-23T20:13:18.674Z,89.64
2022-10-23T20:15:50.766Z,89.65
2022-10-23T20:18:21.548Z,89.71
2022-10-23T20:20:52.544Z,89.76
2022-10-23T20:23:23.177Z,89.84
2022-10-23T20:25:54.114Z,89.97
2022-10-23T20:28:24.525Z,90.00
2022-10-23T20:30:57.197Z,90.14
2022-10-23T20:33:27.880Z,90.18
2022-10-23T20:35:58.912Z,90.29
2022-10-23T20:38:29.900Z,90.25
2022-10-23T20:41:05.738Z,90.27
2022-10-23T20:43:36.605Z,90.25
2022-10-23T20:46:09.275Z,90.47
2022-10-23T20:48:41.286Z,90.47
2022-10-23T20:51:13.838Z,90.65
2022-10-23T20:53:45.620Z,90.72
2022-10-23T20:56:17.999Z,90.85
2022-10-23T20:58:48.827Z,90.91
2022-10-23T21:01:20.630Z,91.02
2022-10-23T21:03:56.101Z,91.06
2022-10-23T21:06:31.542Z,91.09
2022-10-23T21:11:39.984Z,91.26
2022-10-23T21:14:10.831Z,91.42
2022-10-23T21:16:44.408Z,91.52
2022-10-23T21:19:16.165Z,91.64
2022-10-23T21:21:46.735Z,91.81
2022-10-23T21:24:18.558Z,91.99
2022-10-23T21:26:49.059Z,92.11
2022-10-23T21:29:20.356Z,92.21
2022-10-23T21:31:56.595Z,92.21
2022-10-23T21:34:28.261Z,92.26
2022-10-23T21:37:12.573Z,92.23
2022-10-23T21:39:45.265Z,92.30
2022-10-23T21:42:16.275Z,92.33
2022-10-23T21:44:46.836Z,92.39
2022-10-23T21:47:17.641Z,92.48
2022-10-23T21:49:48.278Z,92.44
2022-10-23T21:52:19.889Z,92.40
2022-10-23T21:54:54.833Z,92.46
2022-10-23T21:57:25.334Z,92.59
2022-10-23T21:59:56.915Z,92.55
2022-10-23T22:02:27.911Z,92.67
2022-10-23T22:04:58.353Z,92.67
2022-10-23T22:10:05.081Z,92.79
2022-10-23T22:12:35.493Z,92.92
2022-10-23T22:15:08.056Z,92.84
2022-10-23T22:17:38.896Z,92.89
2022-10-23T22:20:11.141Z,92.91
2022-10-23T22:22:41.959Z,92.79
2022-10-23T22:25:12.597Z,92.99
2022-10-23T22:27:43.240Z,93.01
2022-10-23T22:30:15.360Z,92.81
2022-10-23T22:32:46.362Z,92.82
2022-10-23T22:35:17.517Z,92.72
2022-10-23T22:37:48.615Z,92.69
2022-10-23T22:40:19.300Z,92.59
2022-10-23T22:42:49.706Z,92.49
2022-10-23T22:45:20.517Z,92.59
2022-10-23T22:47:50.989Z,92.52
2022-10-23T22:50:21.477Z,92.42
2022-10-23T22:52:52.220Z,92.38
2022-10-23T22:55:22.885Z,92.38
2022-10-23T22:57:53.312Z,92.45
2022-10-23T23:00:23.809Z,92.54
2022-10-23T23:02:55.067Z,92.51
2022-10-23T23:05:25.739Z,92.37
2022-10-23T23:07:56.508Z,92.35
2022-10-23T23:10:27.450Z,92.44
2022-10-23T23:12:58.371Z,92.34
2022-10-23T23:15:29.393Z,92.52
2022-10-23T23:18:00.060Z,92.45
2022-10-23T23:20:31.283Z,92.69
2022-10-23T23:23:01.692Z,92.78
2022-10-23T23:25:32.641Z,92.75
2022-10-23T23:28:03.483Z,92.63
2022-10-23T23:30:34.151Z,92.62
2022-10-23T23:33:04.953Z,92.58
2022-10-23T23:35:35.682Z,92.63
2022-10-23T23:38:06.116Z,92.52
2022-10-23T23:40:36.654Z,92.62
2022-10-23T23:43:07.416Z,92.73
2022-10-23T23:45:38.554Z,92.73
2022-10-23T23:48:09.693Z,92.89
2022-10-23T23:50:40.137Z,92.79
2022-10-23T23:53:11.225Z,92.83
2022-10-23T23:58:18.406Z,93.31
